Timeline UpdatesTrip UpdatesNews PostsPvt PostsTravel TipsAdmin PostsConv PostsFollowed PostsChat RequestsBlog PostsPNR Posts

Disclaimer
Search
 
 
Sat Aug 30, 2014 01:40:33 ISTHomeTrainsΣChainsAtlasPNRForumGalleryNewsFAQTripsMembersLoginFeedback
No Recent News for this Train
Other Trains in the News **new
Latest...
.
Fri Nov 22, 2013 (09:02AM)
⇐ Return Journey: Train# 17482

17481/Bilaspur-Tirupati Express

Jul 02 2013 (8:23PM)
Change Departure Station:
Change Arrival Station:
Post a Train Travel TipPost a Train Travel Tip **new
Post a Comment/Question/Picture/VideoPost a Comment/Question/Picture/Video
Pantry/Catering
✕ NO Pantry Car
✓ Catering Avbl
Loco/Rake Reversals
R/Raipur Junction (6); VSKP/Visakhapatnam Junction (8);
RSA - Rake Sharing
Rake/Coach Composition
ENG-SLR-GS-GS-GS-S1-S2-S3-S4-S5-B1-GS-GS-GS-SLR (BSP-R & VSKP-TPTY); ENG-SLR-GS-GS-GS-B1-S5-S4-S3-S2-S1-GS-GS-GS-SLR (R-VSKP)
Loco
Loco Change at BZA frm Electric (WAM 4) to Diesel...
Read more...
(Dual WDP 1 frm BZA shed) and again frm Diesel (dual WDP 1 frm BZA shed) to Electric(WAM4 usually) at RJY and again from Electric(WAM4) to Diesel at VSKP.
News    PNR    Forum    Time-Table    Availability    Fare Chart    Map    Arr/Dep History    Trips    Gallery    ΣChains    X/O    Timeline    
Travel Time: 30h 30m    63 halts    Distance: 1403 km    Avg Speed: 46 km/hr
Type: Mail/Express
Zone: SCR/South Central
Departs @ 10:05 (Avg 2m late)
Platform# 6
  T   S
Bilaspur Junction/BSP 
Arrives @ 16:35 +1 night (Avg 16m late)
Platform# 4
S  W   
Tirupati Main/TPTY 

63 halts. 202 intermediate Stations between Bilaspur Junction and Tirupati Main

Show ALL intermediate Stations  Show Old Time-Table

#CodeStation NameX/OArrivesAvgDepartsAvgHaltPFDay#KmSpeedElevZoneAddress
1BSP»Bilaspur Junction (8)»  -10:05+2610.075271mSECRBilaspur, Chhattisgarh
2BYTBhatapara (4)X  10:42+1110:43+121m--146.282270mSECRBanjari Road, Chhattisgarh
3TLDTilda (3)  11:02+1211:03+131m--172.244291mSECRBanjari Rd, Chhattisgarh
4RRaipur Junction (6)11:55+112:15+720m--1110.442297mSECRRaipur, Chhattisgarh
5MSMDMahasamund  13:31+213:32+41m--1164.068301mECoRMahasamund, Chhattisgarh
6BGBRBagbahra  13:59+714:00+81m--1194.648358mECoRBagbahra, Chhattisgarh
7KRARKhariar Road  14:26+514:27+141m--1215.658317mECoRJonk, Odisha
8NPDNawapara Road  14:39+1314:40+161m--1227.280344mECoRNuapada District, Odisha
9HSKHarishanker Road (2)  15:02+1815:03+191m--1256.763335mECoRPin Code:767038, Odisha
10KBJKantabanji  15:25+1915:35+1910m--1279.949283mECoRBolangir, Odisha
11TIGTitlagarh Junction (3)X  16:15+1616:25+1710m--1312.452212mECoRTitlagarh, Odisha
12KSNGKesinga (1)X  16:41+1516:42+161m11326.365183mECoRKesinga, Odisha
13RPRDRupra Road  16:57+2216:58+231m--1342.544233mECoRKalahandi, Odisha
14NRLRNorla Road  17:07+2117:08+221m--1349.258247mECoRKalahandi, Odisha
15AMBAmbodala  17:34+1417:35+161m--1374.271374mECoRState Highway 6, Odisha
16MNGDMuniguda  17:56+1817:57+191m--1399.158335mECoRMuniguda, Odisha
17THVTherubali  18:34+1818:35+221m--1435.122270mECoRRayagada, Odisha
18SPRDSingapuram Road (2)X  19:01+1719:02+181m--1444.543248mECoRJaykaypur, Odisha
19RGDARayagada (3)  19:15+1519:25+1710m--1453.776229mECoRRayagada ph.no 06856-222407, Odisha
20PVPTParvatipuram Town  20:01+020:02+01m--1499.025121mECoRParvatipuram, Andhra Pradesh
21PVPParvatipuram (3)  20:06+2220:07+231m--1500.780122mECoRParvatipuram, Andhra Pradesh
22VBLBobbili Junction (2)  20:25+2420:27+242m21524.652137mECoRBobbili, Andhra Pradesh
23VZMVizianagaram Junction (5)  21:30+721:35+105m--1578.86863mECoRVizianagaram, Andhra Pradesh
24KTVKottavalasa Junction (5)  22:06+1422:07+151m--1613.86458mECoRVizianagaram District, Andhra Pradesh
25SCMSimhachalam (2)  22:24-22:25-1m--1631.9927mECoRVisakhapatnam, Andhra Pradesh
26VSKPVisakhapatnam Junction (8)X23:20-123:40+120m41640.03411mECoRVishakhapatnam 530001, Andhra Pradesh
27DVDDuvvada (4)  00:09+500:10+61m12656.35346mECoRVishakhapatnam District, Andhra Pradesh
28AKPAnakapalle (3)  00:28+1100:29+131m22672.35930mSCRAnakapalle ph.no . 08924-221698, Andhra Pradesh
29YLMElamanchili (2)  00:53+1300:54+151m--2696.010423mSCRVisakhapatnam District, Andhra Pradesh
30TUNITuni (2)  01:17+2401:18+251m12736.17124mSCRTuni ph.no. 08854-252172, Andhra Pradesh
31ANVAnnavaram (3)X  01:32+2301:33+241m12752.88327mSCREast Godavari District, Andhra Pradesh
32PAPPithapuram (2)X  01:51+3101:52+331m--2777.55622mSCREast Godavari District, Andhra Pradesh
33SLOSamalkot Junction (3)X  02:05+3602:06+371m32789.68418mSCRSamalkot, Andhra Pradesh
34APTAnaparti (3)X  02:25+4002:26+401m--2816.14521mSCREast Godavari District, Andhra Pradesh
35DWPDwarapudi (3)  02:31+4002:32+401m--2819.93120mSCREast Godavari District, Andhra Pradesh
36RJYRajahmundry (3)X  03:10+3403:25+3815m12839.83623mSCRRajahmundry ph.no. 0883-2420541, Andhra Pradesh
37KVRKovvur (3)  03:38+4103:39+411m32847.64325mSCRWest Godavari, Andhra Pradesh
38NDDNidadavolu Junction (3)  03:59+3904:00+401m22862.05420mSCRNidadavolu jtn ph.no. 08813-210325, Andhra Pradesh
39TNKUTanuku (2)  04:19+3904:20+401m--2879.15312mSCR131, Andhra Pradesh
40ALAttili (1)  04:32+4504:33+451m12889.74214mSCRWest Godavari, Andhra Pradesh
41BVRTBhimavaram Town (2)  05:01+3605:02+371m12909.5488mSCRBhimavaram, Andhra Pradesh
42AKVDAkividu (3)X  05:24+4805:25+531m--2927.2485mSCRCoast Andhra, Andhra Pradesh
43KKLRKaikaluru (2)X  05:46+1:0205:47+1:041m--2943.8348mSCRKaikalur, Andhra Pradesh
44GDVGudivada Junction (3)X  06:39+5306:40+551m--2973.13211mSCRKrishna District, Andhra Pradesh
45BZAVijayawada Junction (10)  08:00+4008:20+4020m--21016.35624mSCRVijayawada 520001, Andhra Pradesh
46DIGDuggirala (3)  08:43+5908:44+1:011m--21037.86516mSCRDuggirala, Andhra Pradesh
47TELTenali Junction (5)  08:53+1:0408:54+1:081m321047.56616mSCRTel: 08644-227834, Andhra Pradesh
48NDONidubrolu (3)X  09:14+1:0309:15+1:051m--21069.6659mSCRNidubrolu, Andhra Pradesh
49BPPBapatla (3)  09:34+1:1009:35+1:131m--21090.17510mSCRBapatla, Andhra Pradesh
50CLXChirala (4)  09:47+1:1609:48+1:211m--21105.2528mSCRChirala, Andhra Pradesh
51VTMVetapalem (3)  09:57+1:2209:58+1:271m--21113.1688mSCRVetapalem, Andhra Pradesh
52CJMChinnaganjam (3)  10:09+1:2410:10+1:251m--21125.5659mSCRChinna Ganjam, Andhra Pradesh
53ANBAmmanabrolu (3)  10:23+1:2910:24+1:301m--21139.64516mSCRAmmanabrolu, Andhra Pradesh
54OGLOngole (3)X  10:44+1:1610:45+1:171m321154.56212mSCROngole, Andhra Pradesh
55TNRTanguturu (3)  11:03+1:2811:04+1:281m--21173.27210mSCRTanguturu, Andhra Pradesh
56SKMSingarayakonda (2)X  11:12+1:2711:13+1:271m221182.86326mSCRSingarayakonda, Andhra Pradesh
57KVZKavali (4)XO  11:49+3:2011:50+3:261m221220.57021mSCRKavali, Andhra Pradesh
58BTTRBitragunta (2)  12:04-12:05-1m221237.07615mSCRBitragunta, Andhra Pradesh
59NLRNellore (4)X  12:32+5012:33+501m321271.32721mSCRNellore, Andhra Pradesh
60GDRGudur Junction (3)X  14:00+3614:05+345m121309.86819mSCRGudur, Andhra Pradesh
61VDDVendodu (2)X  14:22+1:0214:23+1:031m--21329.07655mSCRNellore, Andhra Pradesh
62VKIVenkatagiri (3)X  14:36+1:0414:37+1:071m221345.56177mSCRNellore District, Andhra Pradesh
63KHTSri Kalahasti (2)  15:01+1:1115:02+1:121m121370.03068mSCRChittoor District, Andhra Pradesh
64RURenigunta Junction (5)  15:48+2:0815:50+2:232m--21393.213113mSCRChittoor District, Andhra Pradesh
65TPTY•Tirupati Main (5)•  16:35+16-421403.1-150mSCRChittoor Distt, Andhra Pradesh
Scroll to Top
Scroll to Bottom